createdAt,value
2017-10-05T18:01:04.694Z,97242.77
2017-10-05T18:04:43.948Z,97241.09
2017-10-05T18:07:11.902Z,97247.38
2017-10-05T18:09:39.974Z,97256.14
2017-10-05T18:12:07.753Z,97254.16
2017-10-05T18:14:37.306Z,97252.13
2017-10-05T18:17:05.315Z,97263.07
2017-10-05T18:19:33.081Z,97268.70
2017-10-05T18:22:01.048Z,97270.73
2017-10-05T18:24:28.912Z,97278.44
2017-10-05T18:26:57.393Z,97267.70
2017-10-05T18:29:26.557Z,97278.21
2017-10-05T18:31:54.458Z,97274.77
2017-10-05T18:34:22.324Z,97275.16
2017-10-05T18:36:51.058Z,97267.88
2017-10-05T18:39:18.888Z,97258.88
2017-10-05T18:41:46.843Z,97252.70
2017-10-05T18:44:15.541Z,97257.79
2017-10-05T18:46:43.395Z,97264.75
2017-10-05T18:49:11.262Z,97284.91
2017-10-05T18:51:39.449Z,97286.69
2017-10-05T18:54:07.703Z,97286.69
2017-10-05T18:56:35.791Z,97290.88
2017-10-05T18:59:03.655Z,97285.82
2017-10-05T19:01:31.425Z,97303.42
2017-10-05T19:04:00.541Z,97303.86
2017-10-05T19:06:30.144Z,97294.97
2017-10-05T19:09:00.575Z,97288.47
2017-10-05T19:11:31.599Z,97296.39
2017-10-05T19:14:01.524Z,97302.51
2017-10-05T19:16:29.485Z,97315.23
2017-10-05T19:18:57.229Z,97321.22
2017-10-05T19:21:25.102Z,97325.03
2017-10-05T19:23:53.069Z,97326.58
2017-10-05T19:26:21.033Z,97336.56
2017-10-05T19:28:49.106Z,97336.17
2017-10-05T19:31:17.079Z,97329.62
2017-10-05T19:33:45.861Z,97336.93
2017-10-05T19:36:13.830Z,97334.62
2017-10-05T19:38:41.975Z,97327.26
2017-10-05T19:41:10.295Z,97340.02
2017-10-05T19:43:38.228Z,97340.05
2017-10-05T19:46:06.030Z,97339.17
2017-10-05T19:48:33.980Z,97339.49
2017-10-05T19:51:01.644Z,97334.27
2017-10-05T19:53:29.509Z,97343.55
2017-10-05T19:55:57.990Z,97345.75
2017-10-05T19:58:25.739Z,97346.03
2017-10-05T20:00:53.518Z,97341.80
2017-10-05T20:03:21.282Z,97338.00
2017-10-05T20:05:48.946Z,97331.91
2017-10-05T20:08:16.617Z,97346.06
2017-10-05T20:10:44.573Z,97362.81
2017-10-05T20:13:12.286Z,97360.17
2017-10-05T20:15:42.538Z,97361.34
2017-10-05T20:18:12.984Z,97373.92
2017-10-05T20:20:41.568Z,97371.68
2017-10-05T20:23:17.524Z,97368.50
2017-10-05T20:25:48.783Z,97375.42
2017-10-05T20:28:18.601Z,97372.14
2017-10-05T20:33:52.509Z,97373.92
2017-10-05T20:36:20.168Z,97376.66
2017-10-05T20:38:48.099Z,97379.11
2017-10-05T20:41:15.994Z,97372.44
2017-10-05T20:43:43.564Z,97376.12
2017-10-05T20:46:11.152Z,97380.27
2017-10-05T20:48:38.790Z,97386.20
2017-10-05T20:51:06.449Z,97380.70
2017-10-05T20:53:34.005Z,97390.39
2017-10-05T20:56:01.772Z,97393.14
2017-10-05T20:58:29.344Z,97392.70
2017-10-05T21:00:56.959Z,97404.22
2017-10-05T21:03:25.370Z,97404.55
2017-10-05T21:05:52.927Z,97413.25
2017-10-05T21:08:20.486Z,97414.19
2017-10-05T21:10:48.296Z,97412.41
2017-10-05T21:13:15.847Z,97411.78
2017-10-05T21:15:43.380Z,97415.03
2017-10-05T21:18:10.939Z,97409.45
2017-10-05T21:20:38.488Z,97411.30
2017-10-05T21:23:06.019Z,97410.14
2017-10-05T21:25:33.914Z,97416.06
2017-10-05T21:28:01.472Z,97414.29
2017-10-05T21:30:29.054Z,97412.50
2017-10-05T21:32:56.620Z,97408.66
2017-10-05T21:35:24.253Z,97407.77
2017-10-05T21:37:51.792Z,97407.11
2017-10-05T21:40:19.367Z,97408.46
2017-10-05T21:42:46.928Z,97408.22
2017-10-05T21:45:14.448Z,97411.28
2017-10-05T21:47:42.159Z,97411.95
2017-10-05T21:50:09.709Z,97414.86
2017-10-05T21:52:37.272Z,97414.22
2017-10-05T21:55:05.017Z,97416.80
2017-10-05T21:57:32.566Z,97411.92
2017-10-05T22:00:00.111Z,97419.84
2017-10-05T22:02:27.711Z,97415.27
2017-10-05T22:04:55.268Z,97416.44
2017-10-05T22:07:22.827Z,97419.56
2017-10-05T22:09:50.489Z,97415.00
2017-10-05T22:12:18.049Z,97417.63
2017-10-05T22:14:45.579Z,97414.08
2017-10-05T22:17:13.268Z,97415.25
2017-10-05T22:19:40.828Z,97414.79
2017-10-05T22:22:08.387Z,97417.14
2017-10-05T22:24:36.354Z,97422.41
2017-10-05T22:27:03.915Z,97418.97
2017-10-05T22:29:31.498Z,97416.86
2017-10-05T22:31:59.084Z,97427.66
2017-10-05T22:34:27.132Z,97417.54
2017-10-05T22:36:54.663Z,97422.38
2017-10-05T22:39:22.516Z,97421.84
2017-10-05T22:41:50.040Z,97421.41
2017-10-05T22:44:17.572Z,97419.90
2017-10-05T22:46:45.295Z,97421.97
2017-10-05T22:49:12.867Z,97419.34
2017-10-05T22:51:40.427Z,97418.56
2017-10-05T22:54:08.299Z,97421.16
2017-10-05T22:56:36.080Z,97418.38
2017-10-05T22:59:03.616Z,97423.39
2017-10-05T23:01:31.181Z,97426.14
2017-10-05T23:03:58.735Z,97428.48
2017-10-05T23:06:26.329Z,97428.75
2017-10-05T23:08:53.955Z,97428.33
2017-10-05T23:11:21.530Z,97432.09
2017-10-05T23:13:49.060Z,97430.15
2017-10-05T23:16:16.773Z,97431.25
2017-10-05T23:18:44.300Z,97427.45
2017-10-05T23:21:11.860Z,97426.73
2017-10-05T23:23:39.752Z,97418.69
2017-10-05T23:26:07.279Z,97419.25
2017-10-05T23:28:34.838Z,97424.41
2017-10-05T23:31:02.447Z,97417.98
2017-10-05T23:33:30.057Z,97421.66
2017-10-05T23:35:57.618Z,97424.61
2017-10-05T23:38:25.381Z,97423.03
2017-10-05T23:40:52.904Z,97426.86
2017-10-05T23:43:20.440Z,97427.67
2017-10-05T23:45:48.398Z,97428.62
2017-10-05T23:48:16.076Z,97428.25
2017-10-05T23:50:43.608Z,97419.07
2017-10-05T23:53:11.564Z,97420.91
2017-10-05T23:55:39.096Z,97420.69
2017-10-05T23:58:06.618Z,97419.80
